Time,TemperatureF,DewpointF,PressureIn,WindDirection,WindDirectionDegrees,WindSpeedMPH,WindSpeedGustMPH,Humidity,HourlyPrecipIn,Conditions,Clouds,dailyrainin,SolarRadiationWatts/m^2,SoftwareType,DateUTC
2013-08-24 00:24:00,54.0,51.0,-100.00,SSW,193,1.0,4.0,89,0.00,,,0.01,0.000000,,2013-08-24 04:24:00,
2013-08-24 00:34:00,54.0,51.0,-100.00,SSW,193,1.0,4.0,89,0.00,,,0.01,0.000000,,2013-08-24 04:34:00,
2013-08-24 02:12:00,53.0,50.0,-100.00,East,86,2.0,4.0,90,-99.99,,,0.01,0.000000,,2013-08-24 06:12:00,
2013-08-24 02:22:00,53.0,50.0,-100.00,East,86,2.0,4.0,90,-99.99,,,0.01,0.000000,,2013-08-24 06:22:00,
2013-08-24 02:32:00,53.0,50.0,-100.00,East,86,2.0,4.0,90,-99.99,,,0.01,0.000000,,2013-08-24 06:32:00,
2013-08-24 03:12:00,52.0,49.0,-100.00,East,95,2.0,6.0,90,0.00,,,0.01,0.000000,,2013-08-24 07:12:00,
2013-08-24 03:22:00,52.0,49.0,-100.00,East,95,2.0,6.0,90,0.00,,,0.01,0.000000,,2013-08-24 07:22:00,
2013-08-24 03:32:00,52.0,49.0,-100.00,East,95,2.0,6.0,90,0.00,,,0.01,0.000000,,2013-08-24 07:32:00,
2013-08-24 06:13:00,46.0,45.0,-100.00,SSW,200,2.0,2.0,97,0.00,,,0.00,0.000000,,2013-08-24 10:13:00,
2013-08-24 06:23:00,46.0,45.0,-100.00,SSW,200,2.0,2.0,97,0.00,,,0.00,0.000000,,2013-08-24 10:23:00,
2013-08-24 06:33:00,46.0,45.0,-100.00,SSW,200,2.0,2.0,97,0.00,,,0.00,0.000000,,2013-08-24 10:33:00,
2013-08-24 07:12:00,47.0,46.0,-100.00,SW,217,2.0,3.0,97,0.00,,,0.00,12.000000,,2013-08-24 11:12:00,
2013-08-24 08:12:00,55.0,52.0,-100.00,SSE,149,0.0,3.0,90,0.00,,,0.00,90.000000,,2013-08-24 12:12:00,
2013-08-24 08:21:00,55.0,52.0,-100.00,SSE,149,0.0,3.0,90,0.00,,,0.00,90.000000,,2013-08-24 12:21:00,
2013-08-24 08:32:00,55.0,52.0,-100.00,SSE,149,0.0,3.0,90,0.00,,,0.00,90.000000,,2013-08-24 12:32:00,
2013-08-24 09:11:00,65.0,53.0,-100.00,NNE,14,2.0,3.0,64,0.00,,,0.00,322.000000,,2013-08-24 13:11:00,
2013-08-24 09:22:00,65.0,53.0,-100.00,NNE,14,2.0,3.0,64,0.00,,,0.00,322.000000,,2013-08-24 13:22:00,
2013-08-24 09:32:00,65.0,53.0,-100.00,NNE,14,2.0,3.0,64,0.00,,,0.00,322.000000,,2013-08-24 13:32:00,
2013-08-24 10:11:00,69.0,53.0,-100.00,NNW,336,3.0,5.0,57,0.00,,,0.00,547.000000,,2013-08-24 14:11:00,
2013-08-24 10:22:00,69.0,53.0,-100.00,NNW,336,3.0,5.0,57,0.00,,,0.00,547.000000,,2013-08-24 14:22:00,
2013-08-24 10:32:00,69.0,53.0,-100.00,NNW,336,3.0,5.0,57,0.00,,,0.00,547.000000,,2013-08-24 14:32:00,
2013-08-24 11:12:00,70.0,54.0,-100.00,NNW,327,4.0,8.0,56,0.00,,,0.00,730.000000,,2013-08-24 15:12:00,
2013-08-24 11:22:00,70.0,54.0,-100.00,NNW,327,4.0,8.0,56,0.00,,,0.00,730.000000,,2013-08-24 15:22:00,
2013-08-24 11:34:00,70.0,54.0,-100.00,NNW,327,4.0,8.0,56,0.00,,,0.00,730.000000,,2013-08-24 15:34:00,
2013-08-24 12:23:00,73.0,53.0,-100.00,NNW,341,4.0,7.0,50,0.00,,,0.00,858.000000,,2013-08-24 16:23:00,
2013-08-24 12:33:00,73.0,53.0,-100.00,NNW,341,4.0,7.0,50,0.00,,,0.00,858.000000,,2013-08-24 16:33:00,
2013-08-24 17:11:00,73.0,52.0,-100.00,WSW,246,4.0,7.0,48,-99.99,,,-99.99,628.000000,,2013-08-24 21:11:00,
2013-08-24 17:22:00,73.0,52.0,-100.00,WSW,246,4.0,7.0,48,-99.99,,,-99.99,628.000000,,2013-08-24 21:22:00,
2013-08-24 17:34:00,73.0,52.0,-100.00,WSW,246,4.0,7.0,48,-99.99,,,-99.99,628.000000,,2013-08-24 21:34:00,
2013-08-24 18:14:00,67.0,51.0,-100.00,SW,223,6.0,10.0,57,0.00,,,0.00,361.000000,,2013-08-24 22:14:00,
2013-08-24 18:24:00,67.0,51.0,-100.00,SW,223,6.0,10.0,57,0.00,,,0.00,361.000000,,2013-08-24 22:24:00,
2013-08-24 18:33:00,67.0,51.0,-100.00,SW,223,6.0,10.0,57,0.00,,,0.00,361.000000,,2013-08-24 22:33:00,
2013-08-24 19:12:00,64.0,50.0,-100.00,SW,215,5.0,9.0,61,0.00,,,0.00,32.000000,,2013-08-24 23:12:00,
2013-08-24 19:22:00,64.0,50.0,-100.00,SW,215,5.0,9.0,61,0.00,,,0.00,32.000000,,2013-08-24 23:22:00,
2013-08-24 19:34:00,64.0,50.0,-100.00,SW,215,5.0,9.0,61,0.00,,,0.00,32.000000,,2013-08-24 23:34:00,
2013-08-24 20:12:00,60.0,51.0,-100.00,SSW,210,4.0,-999.0,73,0.00,,,0.00,,,2013-08-25 00:12:00,
2013-08-24 20:22:00,60.0,51.0,-100.00,SSW,210,4.0,-999.0,73,0.00,,,0.00,,,2013-08-25 00:22:00,
2013-08-24 20:32:00,60.0,51.0,-100.00,SSW,210,4.0,-999.0,73,0.00,,,0.00,,,2013-08-25 00:32:00,
2013-08-24 21:11:00,60.0,54.0,-100.00,SSW,204,4.0,7.0,80,0.00,,,0.00,0.000000,,2013-08-25 01:11:00,
2013-08-24 21:22:00,60.0,54.0,-100.00,SSW,204,4.0,7.0,80,0.00,,,0.00,0.000000,,2013-08-25 01:22:00,
2013-08-24 21:32:00,60.0,54.0,-100.00,SSW,204,4.0,7.0,80,0.00,,,0.00,0.000000,,2013-08-25 01:32:00,
2013-08-24 22:12:00,59.0,52.0,-100.00,SSW,208,4.0,8.0,78,0.00,,,0.00,0.000000,,2013-08-25 02:12:00,
2013-08-24 22:22:00,59.0,52.0,-100.00,SSW,208,4.0,8.0,78,0.00,,,0.00,0.000000,,2013-08-25 02:22:00,
2013-08-24 22:33:00,59.0,52.0,-100.00,SSW,208,4.0,8.0,78,0.00,,,0.00,0.000000,,2013-08-25 02:33:00,
2013-08-24 23:11:00,57.0,53.0,-100.00,SSW,206,4.0,6.0,86,0.00,,,0.00,0.000000,,2013-08-25 03:11:00,
2013-08-24 23:23:00,57.0,53.0,-100.00,SSW,206,4.0,6.0,86,0.00,,,0.00,0.000000,,2013-08-25 03:23:00,
2013-08-24 23:34:00,57.0,53.0,-100.00,SSW,206,4.0,6.0,86,0.00,,,0.00,0.000000,,2013-08-25 03:34:00,